createdAt,value
2022-08-26T00:01:59.335Z,8.30
2022-08-26T00:04:27.560Z,9.07
2022-08-26T00:06:56.111Z,7.75
2022-08-26T00:09:50.019Z,8.13
2022-08-26T00:14:44.753Z,8.27
2022-08-26T00:17:11.648Z,7.25
2022-08-26T00:19:40.792Z,9.02
2022-08-26T00:22:07.730Z,7.55
2022-08-26T00:24:34.829Z,8.68
2022-08-26T00:27:02.001Z,9.05
2022-08-26T00:29:54.830Z,9.10
2022-08-26T00:32:23.627Z,8.05
2022-08-26T00:34:50.561Z,7.78
2022-08-26T00:37:18.676Z,8.82
2022-08-26T00:39:46.872Z,8.18
2022-08-26T00:42:13.994Z,7.70
2022-08-26T00:44:41.245Z,8.32
2022-08-26T00:47:21.697Z,8.13
2022-08-26T00:49:51.557Z,7.80
2022-08-26T00:52:21.659Z,7.43
2022-08-26T00:54:59.462Z,7.80
2022-08-26T00:57:26.785Z,7.80
2022-08-26T01:00:01.012Z,7.95
2022-08-26T01:02:28.877Z,7.55
2022-08-26T01:04:59.421Z,8.90
2022-08-26T01:07:30.161Z,9.60
2022-08-26T01:10:07.371Z,12.80
2022-08-26T01:12:40.309Z,13.60
2022-08-26T01:15:15.200Z,14.07
2022-08-26T01:17:43.829Z,16.98
2022-08-26T01:20:22.909Z,17.23
2022-08-26T01:23:01.465Z,14.80
2022-08-26T01:25:33.224Z,14.15
2022-08-26T01:28:05.898Z,14.60
2022-08-26T01:30:34.080Z,12.73
2022-08-26T01:33:04.932Z,13.80
2022-08-26T01:35:32.052Z,14.88
2022-08-26T01:38:02.322Z,12.93
2022-08-26T01:40:37.165Z,12.52
2022-08-26T01:43:07.383Z,12.70
2022-08-26T01:45:37.513Z,11.57
2022-08-26T01:48:11.568Z,11.00
2022-08-26T01:50:39.638Z,11.77
2022-08-26T01:53:10.822Z,10.95
2022-08-26T01:55:43.042Z,10.40
2022-08-26T01:58:23.828Z,11.82
2022-08-26T02:00:51.389Z,11.52
2022-08-26T02:03:21.648Z,12.05
2022-08-26T02:05:56.360Z,12.18
2022-08-26T02:08:37.049Z,11.68
2022-08-26T02:11:04.101Z,12.65
2022-08-26T02:13:33.571Z,12.25
2022-08-26T02:16:03.799Z,11.50
2022-08-26T02:18:38.954Z,13.30
2022-08-26T02:21:07.395Z,12.52
2022-08-26T02:23:35.798Z,12.80
2022-08-26T02:26:19.326Z,12.30
2022-08-26T02:28:57.270Z,13.02
2022-08-26T02:31:25.284Z,11.77
2022-08-26T02:33:52.227Z,10.48
2022-08-26T02:36:28.576Z,10.85
2022-08-26T02:38:55.908Z,11.80
2022-08-26T02:41:23.565Z,11.20
2022-08-26T02:43:51.636Z,10.80
2022-08-26T02:46:21.498Z,12.45
2022-08-26T02:48:56.232Z,12.90
2022-08-26T02:51:23.407Z,13.05
2022-08-26T02:53:51.861Z,12.57
2022-08-26T02:56:19.127Z,11.43
2022-08-26T02:59:06.160Z,12.05
2022-08-26T03:01:35.982Z,12.20
2022-08-26T03:04:05.376Z,10.77
2022-08-26T03:06:32.852Z,12.40
2022-08-26T03:09:00.084Z,12.85
2022-08-26T03:11:32.298Z,11.27
2022-08-26T03:14:01.829Z,12.27
2022-08-26T03:16:37.492Z,12.63
2022-08-26T03:19:09.911Z,11.00
2022-08-26T03:21:38.203Z,12.40
2022-08-26T03:24:05.917Z,13.15
2022-08-26T03:26:33.009Z,11.00
2022-08-26T03:32:49.403Z,10.93
2022-08-26T03:35:17.068Z,10.38
2022-08-26T03:38:27.525Z,10.25
2022-08-26T03:40:55.604Z,9.75
2022-08-26T03:43:26.716Z,10.57
2022-08-26T03:45:53.894Z,10.75
2022-08-26T03:48:27.054Z,11.25
2022-08-26T03:50:53.962Z,10.10
2022-08-26T03:53:21.421Z,10.30
2022-08-26T03:55:48.647Z,10.73
2022-08-26T03:58:20.633Z,10.65
2022-08-26T04:00:48.031Z,10.80
2022-08-26T04:03:38.531Z,10.40
2022-08-26T04:06:05.865Z,9.95
2022-08-26T04:09:01.064Z,9.52
2022-08-26T04:11:34.551Z,8.63
2022-08-26T04:14:05.388Z,9.48
2022-08-26T04:16:34.229Z,9.30
2022-08-26T04:19:06.583Z,10.52
2022-08-26T04:21:34.584Z,11.05
2022-08-26T04:24:03.586Z,11.73
2022-08-26T04:26:39.397Z,11.73
2022-08-26T04:29:34.777Z,12.00
2022-08-26T04:32:03.149Z,9.82
2022-08-26T04:34:30.091Z,9.13
2022-08-26T04:36:58.276Z,11.27
2022-08-26T04:39:28.241Z,10.27
2022-08-26T04:41:55.548Z,10.57
2022-08-26T04:44:27.419Z,10.25
2022-08-26T04:46:55.755Z,10.18
2022-08-26T04:49:28.809Z,10.25
2022-08-26T04:52:03.732Z,10.68
2022-08-26T04:54:31.973Z,9.98
2022-08-26T04:56:59.522Z,2.10
2022-08-26T04:59:27.662Z,9.10
2022-08-26T05:01:59.800Z,8.80
2022-08-26T05:04:26.871Z,8.88
2022-08-26T05:06:59.259Z,9.55
2022-08-26T05:09:58.618Z,9.27
2022-08-26T05:12:25.755Z,9.05
2022-08-26T05:14:53.516Z,10.52
2022-08-26T05:17:20.617Z,10.40
2022-08-26T05:19:50.556Z,10.55
2022-08-26T05:22:18.371Z,11.30
2022-08-26T05:24:46.453Z,13.52
2022-08-26T05:27:14.899Z,13.88
2022-08-26T05:30:48.450Z,14.07
2022-08-26T05:33:16.635Z,15.10
2022-08-26T05:35:46.035Z,14.68
2022-08-26T05:38:35.243Z,17.08
2022-08-26T05:41:02.511Z,17.10
2022-08-26T05:43:30.421Z,18.42
2022-08-26T05:46:05.997Z,18.83
2022-08-26T05:49:14.494Z,20.95
2022-08-26T05:51:45.199Z,23.73
2022-08-26T05:54:13.619Z,24.30
2022-08-26T05:56:41.261Z,23.83
2022-08-26T05:59:14.690Z,23.70
2022-08-26T06:01:43.610Z,23.98
2022-08-26T06:04:12.037Z,24.98
2022-08-26T06:06:41.749Z,22.92
2022-08-26T06:09:38.942Z,21.50
2022-08-26T06:12:06.065Z,24.13
2022-08-26T06:14:33.025Z,23.33
2022-08-26T06:17:00.835Z,22.02
2022-08-26T06:19:32.768Z,22.00
2022-08-26T06:22:22.449Z,22.23
2022-08-26T06:25:09.174Z,21.80
2022-08-26T06:27:36.921Z,22.83
2022-08-26T06:30:45.606Z,22.35
2022-08-26T06:33:13.308Z,21.20
2022-08-26T06:35:42.090Z,21.42
2022-08-26T06:38:11.253Z,21.75
2022-08-26T06:40:52.995Z,21.38
2022-08-26T06:43:23.826Z,21.98
2022-08-26T06:45:59.919Z,20.83
2022-08-26T06:48:30.179Z,22.20
2022-08-26T06:51:14.603Z,21.92
2022-08-26T06:53:46.171Z,21.95
2022-08-26T06:56:15.802Z,22.48
2022-08-26T06:59:15.532Z,23.20
2022-08-26T07:01:46.600Z,21.60
2022-08-26T07:04:20.171Z,23.23
2022-08-26T07:06:52.303Z,21.80
2022-08-26T07:09:24.792Z,23.85
2022-08-26T07:11:53.264Z,19.95
2022-08-26T07:14:21.706Z,22.10
2022-08-26T07:16:50.400Z,21.27
2022-08-26T07:19:30.592Z,21.45
2022-08-26T07:22:02.083Z,22.45
2022-08-26T07:24:31.186Z,22.20
2022-08-26T07:27:01.601Z,21.13
2022-08-26T07:29:33.224Z,21.45
2022-08-26T07:32:00.367Z,21.52
2022-08-26T07:34:27.572Z,20.02
2022-08-26T07:36:55.492Z,21.02
2022-08-26T07:39:31.493Z,19.85
2022-08-26T07:42:07.881Z,18.17
2022-08-26T07:44:37.583Z,18.85
2022-08-26T07:47:10.148Z,17.30
2022-08-26T07:50:48.993Z,17.40
2022-08-26T07:53:18.193Z,14.95
2022-08-26T07:55:47.147Z,15.45
2022-08-26T07:58:14.623Z,14.52
2022-08-26T08:00:43.005Z,14.90
2022-08-26T08:03:10.837Z,14.52
2022-08-26T08:05:38.316Z,12.60
2022-08-26T08:08:21.860Z,11.98
2022-08-26T08:10:56.075Z,12.07
2022-08-26T08:13:23.698Z,12.20
2022-08-26T08:15:51.047Z,11.65
2022-08-26T08:18:20.513Z,9.27
2022-08-26T08:21:04.701Z,10.02
2022-08-26T08:23:32.871Z,9.75
2022-08-26T08:26:06.192Z,8.50
2022-08-26T08:28:38.118Z,8.80
2022-08-26T08:31:06.076Z,9.25
2022-08-26T08:33:35.042Z,8.77
2022-08-26T08:36:02.224Z,8.45
2022-08-26T08:38:32.104Z,8.55
2022-08-26T08:40:59.007Z,8.90
2022-08-26T08:43:40.249Z,9.20
2022-08-26T08:46:14.051Z,8.77
2022-08-26T08:48:48.208Z,9.18
2022-08-26T08:51:49.937Z,8.05
2022-08-26T08:54:17.059Z,7.63
2022-08-26T08:56:57.583Z,6.05
2022-08-26T08:59:35.501Z,6.40
2022-08-26T09:02:22.389Z,5.15
2022-08-26T09:05:02.233Z,5.15
2022-08-26T09:07:47.257Z,5.25
2022-08-26T09:10:20.398Z,5.15
2022-08-26T09:12:48.849Z,4.82
2022-08-26T09:15:31.847Z,5.38
2022-08-26T09:18:11.935Z,4.65
2022-08-26T09:20:59.441Z,5.00
2022-08-26T09:23:27.188Z,4.90
2022-08-26T09:26:00.433Z,4.95
2022-08-26T09:28:31.597Z,5.13
2022-08-26T09:31:13.039Z,4.80
2022-08-26T09:33:41.600Z,4.57
2022-08-26T09:36:35.385Z,4.75
2022-08-26T09:39:27.471Z,5.10
2022-08-26T09:42:12.934Z,4.97
2022-08-26T09:45:00.535Z,4.95
2022-08-26T09:47:39.263Z,4.93
2022-08-26T09:50:31.107Z,4.80
2022-08-26T09:53:14.497Z,4.25
2022-08-26T09:55:47.672Z,3.97
2022-08-26T09:58:36.544Z,4.57
2022-08-26T10:01:14.948Z,3.97
2022-08-26T10:03:43.197Z,3.97
2022-08-26T10:06:21.304Z,4.60
2022-08-26T10:08:51.995Z,4.38
2022-08-26T10:11:38.391Z,3.90
2022-08-26T10:14:39.961Z,4.00
2022-08-26T10:17:38.194Z,4.00
2022-08-26T10:20:25.816Z,4.57
2022-08-26T10:23:12.571Z,4.00
2022-08-26T10:26:01.953Z,4.18
2022-08-26T10:28:38.827Z,3.85
2022-08-26T10:31:20.090Z,4.43
2022-08-26T10:33:52.526Z,4.03
2022-08-26T10:37:05.139Z,3.88
2022-08-26T10:39:46.002Z,3.72
2022-08-26T10:42:35.209Z,3.90
2022-08-26T10:45:11.938Z,3.58
2022-08-26T10:48:06.396Z,3.85
2022-08-26T10:50:37.531Z,3.78
2022-08-26T10:53:25.302Z,3.80
2022-08-26T10:56:28.469Z,3.20
2022-08-26T10:59:12.790Z,3.17
2022-08-26T11:01:42.955Z,3.20
2022-08-26T11:04:28.996Z,3.45
2022-08-26T11:07:33.752Z,2.90
2022-08-26T11:10:06.750Z,3.20
2022-08-26T11:12:37.291Z,2.90
2022-08-26T11:15:13.687Z,2.35
2022-08-26T11:18:03.614Z,2.80
2022-08-26T11:20:47.165Z,2.10
2022-08-26T11:23:23.000Z,2.17
2022-08-26T11:25:57.179Z,2.22
2022-08-26T11:28:45.307Z,2.17
2022-08-26T11:31:38.263Z,2.40
2022-08-26T11:34:08.848Z,2.00
2022-08-26T11:36:56.272Z,2.13
2022-08-26T11:40:02.723Z,1.90
2022-08-26T11:42:42.626Z,1.92
2022-08-26T11:45:31.181Z,1.85
2022-08-26T11:47:58.891Z,1.83
2022-08-26T11:50:28.340Z,1.92
2022-08-26T11:53:01.857Z,1.80
2022-08-26T11:55:31.447Z,2.05
2022-08-26T11:58:01.972Z,2.28
2022-08-26T12:00:39.770Z,1.92
2022-08-26T12:03:19.449Z,2.40
2022-08-26T12:05:49.268Z,1.83
2022-08-26T12:08:27.943Z,2.65
2022-08-26T12:11:09.418Z,1.80
2022-08-26T12:13:39.138Z,2.08
2022-08-26T12:16:06.771Z,2.00
2022-08-26T12:18:37.667Z,1.77
2022-08-26T12:21:22.109Z,2.05
2022-08-26T12:23:56.625Z,1.98
2022-08-26T12:26:23.524Z,2.00
2022-08-26T12:28:58.443Z,1.83
2022-08-26T12:31:35.415Z,1.83
2022-08-26T12:34:06.259Z,2.17
2022-08-26T12:36:48.169Z,2.30
2022-08-26T12:39:33.349Z,2.13
2022-08-26T12:42:02.744Z,2.00
2022-08-26T12:44:53.686Z,1.90
2022-08-26T12:47:44.329Z,1.63
2022-08-26T12:50:19.555Z,1.83
2022-08-26T12:53:02.780Z,1.70
2022-08-26T12:55:35.971Z,1.55
2022-08-26T12:58:28.413Z,1.50
2022-08-26T13:00:57.297Z,1.50
2022-08-26T13:03:54.221Z,1.60
2022-08-26T13:06:25.752Z,1.70
2022-08-26T13:08:59.300Z,1.30
2022-08-26T13:11:35.708Z,1.50
2022-08-26T13:14:07.049Z,1.30
2022-08-26T13:16:36.328Z,1.67
2022-08-26T13:19:10.290Z,1.20
2022-08-26T13:21:49.870Z,1.30
2022-08-26T13:24:23.119Z,1.70
2022-08-26T13:26:51.195Z,1.40
2022-08-26T13:29:19.415Z,1.48
2022-08-26T13:31:46.941Z,1.25
2022-08-26T13:34:18.121Z,1.52
2022-08-26T13:36:46.777Z,1.17
2022-08-26T13:39:15.044Z,1.27
2022-08-26T13:41:43.277Z,1.40
2022-08-26T13:44:11.281Z,1.40
2022-08-26T13:46:38.654Z,1.30
2022-08-26T13:49:07.343Z,1.00
2022-08-26T13:51:34.285Z,1.20
2022-08-26T13:54:01.267Z,1.50
2022-08-26T13:56:29.865Z,1.40
2022-08-26T13:58:58.311Z,1.20
2022-08-26T14:01:25.775Z,1.30
2022-08-26T14:03:52.885Z,1.40
2022-08-26T14:06:20.077Z,1.48
2022-08-26T14:09:07.130Z,1.40
2022-08-26T14:11:45.026Z,1.85
2022-08-26T14:14:21.497Z,1.65
2022-08-26T14:16:58.861Z,1.60
2022-08-26T14:19:31.922Z,1.48
2022-08-26T14:22:00.792Z,1.58
2022-08-26T14:24:28.994Z,1.67
2022-08-26T14:26:56.102Z,1.70
2022-08-26T14:29:23.046Z,1.50
2022-08-26T14:31:50.022Z,1.50
2022-08-26T14:34:17.323Z,1.60
2022-08-26T14:36:44.329Z,1.40
2022-08-26T14:39:13.528Z,1.50
2022-08-26T14:41:55.844Z,1.52
2022-08-26T14:44:29.806Z,1.50
2022-08-26T14:46:57.263Z,1.58
2022-08-26T14:49:25.221Z,1.30
2022-08-26T14:51:52.205Z,1.50
2022-08-26T14:54:21.195Z,1.52
2022-08-26T14:56:53.869Z,1.88
2022-08-26T14:59:26.919Z,1.45
2022-08-26T15:01:54.685Z,1.50
2022-08-26T15:04:23.042Z,1.42
2022-08-26T15:06:50.962Z,1.27
2022-08-26T15:09:18.138Z,1.70
2022-08-26T15:11:47.671Z,1.35
2022-08-26T15:14:19.907Z,1.50
2022-08-26T15:16:51.855Z,1.58
2022-08-26T15:19:19.840Z,1.38
2022-08-26T15:21:47.589Z,1.60
2022-08-26T15:24:17.295Z,1.52
2022-08-26T15:26:44.546Z,1.55
2022-08-26T15:29:12.019Z,1.65
2022-08-26T15:31:38.988Z,1.63
2022-08-26T15:34:15.960Z,1.40
2022-08-26T15:36:45.805Z,1.50
2022-08-26T15:39:16.501Z,1.15
2022-08-26T15:41:43.929Z,1.73
2022-08-26T15:44:11.907Z,1.73
2022-08-26T15:46:39.381Z,1.80
2022-08-26T15:49:08.419Z,1.45
2022-08-26T15:51:45.255Z,1.30
2022-08-26T15:54:13.645Z,1.25
2022-08-26T15:56:40.676Z,1.63
2022-08-26T15:59:08.237Z,1.80
2022-08-26T16:01:36.100Z,1.30
2022-08-26T16:04:03.823Z,1.58
2022-08-26T16:06:33.835Z,1.27
2022-08-26T16:09:01.878Z,1.58
2022-08-26T16:11:29.269Z,1.40
2022-08-26T16:13:56.184Z,1.30
2022-08-26T16:16:23.557Z,1.67
2022-08-26T16:19:47.060Z,1.63
2022-08-26T16:22:14.129Z,1.85
2022-08-26T16:24:40.996Z,1.80
2022-08-26T16:27:08.409Z,1.73
2022-08-26T16:29:39.247Z,1.75
2022-08-26T16:32:08.840Z,1.85
2022-08-26T16:34:36.166Z,1.52
2022-08-26T16:37:03.150Z,1.67
2022-08-26T16:39:30.409Z,1.95
2022-08-26T16:41:57.551Z,1.67
2022-08-26T16:44:24.663Z,1.75
2022-08-26T16:46:58.723Z,1.60
2022-08-26T16:50:04.689Z,1.58
2022-08-26T16:52:31.600Z,1.70
2022-08-26T16:54:58.544Z,1.70
2022-08-26T16:57:25.771Z,1.65
2022-08-26T16:59:53.949Z,1.50
2022-08-26T17:02:20.937Z,1.50
2022-08-26T17:04:50.215Z,1.63
2022-08-26T17:07:17.507Z,1.77
2022-08-26T17:09:45.647Z,1.30
2022-08-26T17:12:12.701Z,1.77
2022-08-26T17:14:39.579Z,1.40
2022-08-26T17:17:06.500Z,1.60
2022-08-26T17:19:41.073Z,1.55
2022-08-26T17:22:14.945Z,1.70
2022-08-26T17:24:42.999Z,1.85
2022-08-26T17:27:10.093Z,1.58
2022-08-26T17:29:56.089Z,1.60
2022-08-26T17:32:23.031Z,1.70
2022-08-26T17:34:50.040Z,1.50
2022-08-26T17:37:17.411Z,1.98
2022-08-26T17:39:45.523Z,1.67
2022-08-26T17:42:13.310Z,1.73
2022-08-26T17:44:40.261Z,1.40
2022-08-26T17:47:07.280Z,1.85
2022-08-26T17:50:12.843Z,1.67
2022-08-26T17:52:41.061Z,1.90
2022-08-26T17:55:09.728Z,2.88
2022-08-26T17:57:40.461Z,2.38
2022-08-26T18:00:12.996Z,2.67
2022-08-26T18:02:40.539Z,2.60
2022-08-26T18:05:09.316Z,3.20
2022-08-26T18:07:43.847Z,2.65
2022-08-26T18:10:13.803Z,2.30
2022-08-26T18:12:41.767Z,2.60
2022-08-26T18:15:10.575Z,2.38
2022-08-26T18:17:39.285Z,2.53
2022-08-26T18:20:09.337Z,2.40
2022-08-26T18:22:36.260Z,2.40
2022-08-26T18:25:05.093Z,2.42
2022-08-26T18:27:32.472Z,2.88
2022-08-26T18:30:01.909Z,2.65
2022-08-26T18:32:28.896Z,3.00
2022-08-26T18:34:55.790Z,2.80
2022-08-26T18:37:22.915Z,3.05
2022-08-26T18:39:51.794Z,2.78
2022-08-26T18:42:19.035Z,2.80
2022-08-26T18:44:46.064Z,2.70
2022-08-26T18:47:13.249Z,2.70
2022-08-26T18:49:41.534Z,2.80
2022-08-26T18:52:09.273Z,2.90
2022-08-26T18:54:36.901Z,2.90
2022-08-26T18:57:04.140Z,2.25
2022-08-26T18:59:34.476Z,2.75
2022-08-26T19:02:01.562Z,2.63
2022-08-26T19:04:28.649Z,2.88
2022-08-26T19:06:56.015Z,2.90
2022-08-26T19:09:43.849Z,2.65
2022-08-26T19:12:12.745Z,2.92
2022-08-26T19:14:39.778Z,3.13
2022-08-26T19:17:06.766Z,3.13
2022-08-26T19:19:35.186Z,3.22
2022-08-26T19:22:02.261Z,2.97
2022-08-26T19:24:29.200Z,3.90
2022-08-26T19:27:00.338Z,3.72
2022-08-26T19:29:33.661Z,3.90
2022-08-26T19:32:02.006Z,3.70
2022-08-26T19:34:29.531Z,3.83
2022-08-26T19:36:58.344Z,3.70
2022-08-26T19:39:45.505Z,3.47
2022-08-26T19:42:12.975Z,3.78
2022-08-26T19:44:58.444Z,4.20
2022-08-26T19:47:25.478Z,4.78
2022-08-26T19:49:55.831Z,4.07
2022-08-26T19:52:24.247Z,3.88
2022-08-26T19:54:57.683Z,3.92
2022-08-26T19:57:24.860Z,3.78
2022-08-26T19:59:54.032Z,3.40
2022-08-26T20:02:21.151Z,3.20
2022-08-26T20:04:48.250Z,3.92
2022-08-26T20:07:18.947Z,3.90
2022-08-26T20:10:06.204Z,3.92
2022-08-26T20:12:35.913Z,3.55
2022-08-26T20:15:06.651Z,4.63
2022-08-26T20:17:33.721Z,4.50
2022-08-26T20:20:32.804Z,4.10
2022-08-26T20:23:01.699Z,4.95
2022-08-26T20:25:28.677Z,4.55
2022-08-26T20:27:55.853Z,4.65
2022-08-26T20:30:22.851Z,4.70
2022-08-26T20:32:49.810Z,4.47
2022-08-26T20:35:16.912Z,4.82
2022-08-26T20:37:47.544Z,4.72
2022-08-26T20:40:15.099Z,5.07
2022-08-26T20:42:42.472Z,5.15
2022-08-26T20:45:10.651Z,4.22
2022-08-26T20:47:37.596Z,4.90
2022-08-26T20:50:08.068Z,4.60
2022-08-26T20:52:35.481Z,4.65
2022-08-26T20:55:02.484Z,4.70
2022-08-26T20:57:29.556Z,4.70
2022-08-26T21:00:35.539Z,4.75
2022-08-26T21:03:02.508Z,4.85
2022-08-26T21:05:29.472Z,5.00
2022-08-26T21:07:58.514Z,4.82
2022-08-26T21:10:25.563Z,4.53
2022-08-26T21:12:53.469Z,5.07
2022-08-26T21:15:20.433Z,4.93
2022-08-26T21:17:47.332Z,4.80
2022-08-26T21:20:14.688Z,4.72
2022-08-26T21:22:41.856Z,5.10
2022-08-26T21:25:09.652Z,5.50
2022-08-26T21:27:37.911Z,4.70
2022-08-26T21:30:07.535Z,4.72
2022-08-26T21:32:34.486Z,5.28
2022-08-26T21:35:01.382Z,4.50
2022-08-26T21:37:28.944Z,4.40
2022-08-26T21:39:59.401Z,4.97
2022-08-26T21:42:26.696Z,4.80
2022-08-26T21:44:54.269Z,4.60
2022-08-26T21:47:22.274Z,4.25
2022-08-26T21:50:09.376Z,4.00
2022-08-26T21:52:37.702Z,4.40
2022-08-26T21:55:08.841Z,5.05
2022-08-26T21:57:36.517Z,5.05
2022-08-26T22:00:08.771Z,5.53
2022-08-26T22:02:36.820Z,5.00
2022-08-26T22:05:04.143Z,5.07
2022-08-26T22:07:31.039Z,4.82
2022-08-26T22:09:59.062Z,5.07
2022-08-26T22:12:25.994Z,5.00
2022-08-26T22:14:53.008Z,4.80
2022-08-26T22:17:20.016Z,5.18
2022-08-26T22:19:48.035Z,4.82
2022-08-26T22:22:15.259Z,4.53
2022-08-26T22:24:43.307Z,5.28
2022-08-26T22:27:11.999Z,5.40
2022-08-26T22:29:41.402Z,5.40
2022-08-26T22:32:08.501Z,5.32
2022-08-26T22:34:35.451Z,5.38
2022-08-26T22:37:03.207Z,5.05
2022-08-26T22:39:31.419Z,5.50
2022-08-26T22:41:58.640Z,5.85
2022-08-26T22:44:25.810Z,5.15
2022-08-26T22:46:56.980Z,5.45
2022-08-26T22:49:24.649Z,5.35
2022-08-26T22:51:51.653Z,5.47
2022-08-26T22:54:19.330Z,5.35
2022-08-26T22:56:46.488Z,5.20
2022-08-26T22:59:17.044Z,5.10
2022-08-26T23:01:44.788Z,5.40
2022-08-26T23:04:11.992Z,5.22
2022-08-26T23:06:41.295Z,5.35
2022-08-26T23:09:10.042Z,4.55
2022-08-26T23:11:39.828Z,5.38
2022-08-26T23:14:09.499Z,4.75
2022-08-26T23:16:39.421Z,5.22
2022-08-26T23:19:49.784Z,5.25
2022-08-26T23:22:19.501Z,5.60
2022-08-26T23:24:46.472Z,4.97
2022-08-26T23:27:13.438Z,4.63
2022-08-26T23:30:00.312Z,5.25
2022-08-26T23:32:27.428Z,4.75
2022-08-26T23:34:58.756Z,5.22
2022-08-26T23:37:31.313Z,4.90
2022-08-26T23:39:59.205Z,4.87
2022-08-26T23:42:26.198Z,5.20
2022-08-26T23:44:56.104Z,5.30
2022-08-26T23:47:23.042Z,4.90
2022-08-26T23:50:48.690Z,5.47
2022-08-26T23:53:22.131Z,5.32
2022-08-26T23:58:21.417Z,4.90
